Time;durP1;ratioP1;P1;durP2;ratioP2;P2;SDS_P1;SDS_P2;PMS_P1;PMS_P2;Temp;Humidity;BMP_temperature;BMP_pressure;BME280_temperature;BME280_humidity;BME280_pressure;Samples;Min_cycle;Max_cycle;Signal;HPM_P1;HPM_P2
2021/09/11 00:01:16;;;;;;;5.53;2.65;;;19.80;60.00;;;;;;4174875;28;20068;-47
2021/09/11 00:03:19;;;;;;;4.28;2.30;;;19.80;59.70;;;;;;4171863;28;20048;-50
2021/09/11 00:05:23;;;;;;;6.47;3.00;;;19.80;59.60;;;;;;4174805;28;20049;-52
2021/09/11 00:07:25;;;;;;;4.60;2.60;;;19.80;59.60;;;;;;4175817;28;20044;-46
2021/09/11 00:09:27;;;;;;;6.32;3.13;;;19.80;59.60;;;;;;4172334;28;20070;-51
2021/09/11 00:11:29;;;;;;;8.10;3.80;;;19.90;59.50;;;;;;4169820;28;20063;-45
2021/09/11 00:13:32;;;;;;;5.57;4.00;;;19.80;59.40;;;;;;4161915;28;20086;-50
2021/09/11 00:15:35;;;;;;;6.45;3.80;;;19.80;59.20;;;;;;4161082;28;20111;-48
2021/09/11 00:17:37;;;;;;;5.53;3.38;;;19.80;59.20;;;;;;4164382;28;20091;-54
2021/09/11 00:19:40;;;;;;;7.35;3.50;;;19.80;59.40;;;;;;4160498;28;20064;-52
2021/09/11 00:21:42;;;;;;;11.30;3.80;;;19.90;59.90;;;;;;4150690;28;20087;-53
2021/09/11 00:23:45;;;;;;;6.80;3.25;;;19.90;60.30;;;;;;4158300;28;21064;-53
2021/09/11 00:25:47;;;;;;;8.07;2.67;;;20.00;60.70;;;;;;4157990;28;20048;-46
2021/09/11 00:27:49;;;;;;;5.43;2.17;;;20.00;60.50;;;;;;4157390;28;20140;-53
2021/09/11 00:29:51;;;;;;;3.90;2.20;;;20.10;60.50;;;;;;4159050;28;20336;-51
2021/09/11 00:31:54;;;;;;;3.92;2.05;;;20.10;60.30;;;;;;4157626;28;20063;-51
2021/09/11 00:33:56;;;;;;;5.90;2.10;;;20.20;60.30;;;;;;4159953;28;20061;-49
2021/09/11 00:35:58;;;;;;;5.35;2.25;;;20.20;60.30;;;;;;4159232;28;20053;-47
2021/09/11 00:38:00;;;;;;;3.05;1.80;;;20.30;60.20;;;;;;4156840;28;20076;-51
2021/09/11 00:40:02;;;;;;;5.53;1.92;;;20.30;60.10;;;;;;4158281;28;20068;-44
2021/09/11 00:42:05;;;;;;;2.93;1.73;;;20.40;60.10;;;;;;4156508;28;20057;-52
2021/09/11 00:44:07;;;;;;;2.50;1.70;;;20.40;60.10;;;;;;4160194;28;20419;-52
2021/09/11 00:46:10;;;;;;;6.45;1.73;;;20.50;60.00;;;;;;4158838;28;20084;-49
2021/09/11 00:48:12;;;;;;;3.47;1.70;;;20.50;60.00;;;;;;4153690;28;20094;-51
2021/09/11 00:50:15;;;;;;;3.30;1.70;;;20.50;60.00;;;;;;4164281;28;20048;-46
2021/09/11 00:52:17;;;;;;;2.70;1.90;;;20.60;60.10;;;;;;4156858;28;20135;-53
2021/09/11 00:54:20;;;;;;;2.47;1.70;;;20.60;59.60;;;;;;4162411;28;20152;-53
2021/09/11 00:56:22;;;;;;;2.65;2.15;;;20.70;59.50;;;;;;4163945;28;20044;-52
2021/09/11 00:58:25;;;;;;;3.40;2.10;;;20.70;59.40;;;;;;4159957;28;20056;-50
2021/09/11 01:00:27;;;;;;;4.40;2.00;;;20.70;59.10;;;;;;4160177;28;20041;-49
2021/09/11 01:02:29;;;;;;;5.18;2.30;;;20.80;59.00;;;;;;4158928;28;20066;-50
2021/09/11 01:04:32;;;;;;;3.47;2.50;;;20.80;59.00;;;;;;4162857;28;20104;-49
2021/09/11 01:06:35;;;;;;;3.13;2.17;;;20.80;59.00;;;;;;4163123;28;20577;-55
2021/09/11 01:08:42;;;;;;;5.70;1.92;;;20.90;59.00;;;;;;4164117;28;20060;-51
2021/09/11 01:10:44;;;;;;;3.30;2.00;;;20.90;59.00;;;;;;4161521;28;20175;-48
2021/09/11 01:12:47;;;;;;;2.70;2.10;;;20.90;59.00;;;;;;4162185;28;20045;-50
2021/09/11 01:14:49;;;;;;;2.83;2.03;;;21.00;58.90;;;;;;4162228;28;20052;-50
2021/09/11 01:16:51;;;;;;;3.55;2.08;;;21.00;58.90;;;;;;4160728;28;20052;-50
2021/09/11 01:18:54;;;;;;;4.38;2.03;;;21.00;58.80;;;;;;4163989;28;20051;-45
2021/09/11 01:20:56;;;;;;;4.10;2.00;;;21.00;58.60;;;;;;4160127;28;20068;-47
2021/09/11 01:22:59;;;;;;;4.32;2.20;;;21.10;58.60;;;;;;4160889;28;20048;-50
2021/09/11 01:25:09;;;;;;;3.00;2.17;;;21.10;58.60;;;;;;4162657;28;20053;-52
2021/09/11 01:27:12;;;;;;;4.32;2.70;;;21.10;58.40;;;;;;4160717;28;20056;-53
2021/09/11 01:29:14;;;;;;;4.07;2.25;;;21.20;58.50;;;;;;4150210;28;20044;-54
2021/09/11 01:31:16;;;;;;;4.90;2.20;;;21.20;58.40;;;;;;4156167;28;20053;-52
2021/09/11 01:33:18;;;;;;;5.72;2.30;;;21.20;58.30;;;;;;4161344;28;20152;-49
2021/09/11 01:35:20;;;;;;;3.38;2.30;;;21.20;58.20;;;;;;4161478;28;20052;-50
2021/09/11 01:37:23;;;;;;;2.65;2.10;;;21.30;58.30;;;;;;4157363;28;20121;-54
2021/09/11 01:39:25;;;;;;;2.83;2.08;;;21.30;58.20;;;;;;4162100;28;20057;-53
2021/09/11 01:41:27;;;;;;;4.32;2.33;;;21.30;58.00;;;;;;4159853;28;20076;-53
2021/09/11 01:43:35;;;;;;;3.75;2.22;;;21.30;58.00;;;;;;4161032;28;20084;-52
2021/09/11 01:45:37;;;;;;;2.95;2.10;;;21.30;57.90;;;;;;4159381;28;20167;-52
2021/09/11 01:47:40;;;;;;;3.83;2.47;;;21.40;57.80;;;;;;4161147;28;20056;-52
2021/09/11 01:49:43;;;;;;;4.00;2.17;;;21.40;57.70;;;;;;4160161;28;20175;-54
2021/09/11 01:51:48;;;;;;;3.20;1.90;;;21.40;57.70;;;;;;4161669;28;20052;-52
2021/09/11 01:53:50;;;;;;;3.25;2.35;;;21.50;58.30;;;;;;4160776;28;20149;-54
2021/09/11 01:55:52;;;;;;;3.47;2.28;;;21.50;57.60;;;;;;4161484;28;20824;-54
2021/09/11 01:57:55;;;;;;;4.40;2.20;;;21.50;57.60;;;;;;4159919;28;20083;-50
2021/09/11 01:59:57;;;;;;;3.08;2.13;;;21.60;57.50;;;;;;4162730;28;20100;-53
2021/09/11 02:02:21;;;;;;;4.25;2.42;;;21.60;57.00;;;;;;4111138;27;21420;-50
2021/09/11 02:04:23;;;;;;;3.55;2.10;;;21.60;57.40;;;;;;4094627;28;20078;-49
2021/09/11 02:06:27;;;;;;;3.42;2.17;;;21.70;57.20;;;;;;4096624;28;20438;-55
2021/09/11 02:08:29;;;;;;;4.95;2.40;;;21.70;55.80;;;;;;4091858;28;20047;-48
2021/09/11 02:10:31;;;;;;;2.70;2.00;;;21.70;52.30;;;;;;4091378;28;20098;-53
2021/09/11 02:12:33;;;;;;;4.13;2.22;;;21.80;50.70;;;;;;4079151;28;20549;-50
2021/09/11 02:14:35;;;;;;;4.15;2.30;;;21.80;47.40;;;;;;4080922;28;20047;-55
2021/09/11 02:16:37;;;;;;;2.92;2.13;;;21.90;46.30;;;;;;4075074;28;20194;-53
2021/09/11 02:18:39;;;;;;;3.80;2.13;;;21.90;44.20;;;;;;4076739;28;20138;-52
2021/09/11 02:20:42;;;;;;;4.72;2.05;;;22.00;43.50;;;;;;4071457;28;20051;-53
2021/09/11 02:22:44;;;;;;;2.95;2.03;;;22.00;42.90;;;;;;4078413;28;20134;-50
2021/09/11 02:24:46;;;;;;;3.22;1.83;;;22.10;42.90;;;;;;4078433;28;20047;-50
2021/09/11 02:26:48;;;;;;;3.63;1.88;;;22.10;42.70;;;;;;4077408;28;20055;-52
2021/09/11 02:28:50;;;;;;;2.30;2.05;;;22.10;42.30;;;;;;4077288;28;20085;-49
2021/09/11 02:30:52;;;;;;;4.53;1.73;;;22.20;42.50;;;;;;4078764;28;20047;-53
2021/09/11 02:32:55;;;;;;;3.30;1.80;;;22.20;40.90;;;;;;4079347;28;20060;-51
2021/09/11 02:34:57;;;;;;;5.68;2.40;;;22.30;40.30;;;;;;4081741;28;20047;-52
2021/09/11 02:37:00;;;;;;;2.92;1.98;;;22.30;39.90;;;;;;4080802;28;20078;-55
2021/09/11 02:39:01;;;;;;;;;;;22.40;39.60;;;;;;4077798;28;20065;-55
2021/09/11 02:41:04;;;;;;;3.20;1.90;;;22.40;39.60;;;;;;4076302;28;19930;-55
2021/09/11 02:43:06;;;;;;;2.53;1.90;;;22.40;39.30;;;;;;4077654;28;20124;-55
2021/09/11 02:45:09;;;;;;;3.55;2.10;;;22.40;39.00;;;;;;4074674;28;20453;-53
2021/09/11 02:47:11;;;;;;;4.07;2.05;;;22.50;38.40;;;;;;4078569;28;20561;-49
2021/09/11 02:49:13;;;;;;;3.05;1.80;;;22.50;37.90;;;;;;4083456;28;20062;-55
2021/09/11 02:51:15;;;;;;;2.85;2.10;;;22.60;37.90;;;;;;4077338;28;20079;-52
2021/09/11 02:53:17;;;;;;;3.75;2.17;;;22.60;38.20;;;;;;4074401;28;20094;-53
2021/09/11 02:55:20;;;;;;;3.42;1.92;;;22.60;37.80;;;;;;4081862;28;20051;-53
2021/09/11 02:57:22;;;;;;;2.83;2.03;;;22.60;37.30;;;;;;4075540;28;20059;-52
2021/09/11 02:59:24;;;;;;;2.42;1.90;;;22.60;37.20;;;;;;4079709;28;20806;-54
2021/09/11 03:01:26;;;;;;;5.20;2.30;;;22.60;37.30;;;;;;4080139;28;21202;-52
2021/09/11 03:03:28;;;;;;;2.92;2.15;;;22.70;37.20;;;;;;4079406;28;20145;-52
2021/09/11 03:05:30;;;;;;;2.55;1.98;;;22.70;36.90;;;;;;4079503;28;20054;-54
2021/09/11 03:07:32;;;;;;;10.50;2.60;;;22.70;36.80;;;;;;4076875;28;20070;-53
2021/09/11 03:09:34;;;;;;;2.50;1.80;;;22.70;36.90;;;;;;4073472;28;20268;-54
2021/09/11 03:11:36;;;;;;;4.10;2.03;;;22.80;37.40;;;;;;4075709;28;20055;-50
2021/09/11 03:13:39;;;;;;;2.30;1.50;;;22.80;36.40;;;;;;4060328;28;20060;-52
2021/09/11 03:15:41;;;;;;;3.37;2.20;;;22.90;36.00;;;;;;4063777;28;20168;-53
2021/09/11 03:17:43;;;;;;;2.80;1.90;;;22.90;36.00;;;;;;4064786;28;20942;-51
2021/09/11 03:19:46;;;;;;;2.28;1.60;;;22.90;36.20;;;;;;4065841;28;20062;-53
2021/09/11 03:21:48;;;;;;;2.10;1.70;;;23.00;35.90;;;;;;4063799;28;20054;-51
2021/09/11 03:23:50;;;;;;;3.28;2.00;;;23.00;35.70;;;;;;4063803;28;20066;-53
2021/09/11 03:25:52;;;;;;;2.72;1.92;;;23.10;35.40;;;;;;4063459;28;20058;-50
2021/09/11 03:27:54;;;;;;;2.97;1.98;;;23.10;35.60;;;;;;4063457;28;20092;-54
2021/09/11 03:29:56;;;;;;;2.05;1.48;;;23.20;35.40;;;;;;4065243;28;20073;-51
2021/09/11 03:31:59;;;;;;;3.60;1.83;;;23.20;35.60;;;;;;4060381;28;20059;-55
2021/09/11 03:34:01;;;;;;;2.25;1.63;;;23.20;35.40;;;;;;4062897;28;20079;-49
2021/09/11 03:36:03;;;;;;;2.45;1.80;;;23.30;35.60;;;;;;4066182;28;20055;-49
2021/09/11 03:38:06;;;;;;;2.67;1.80;;;23.30;35.80;;;;;;4062178;28;20055;-51
2021/09/11 03:40:09;;;;;;;2.60;1.83;;;23.40;35.30;;;;;;4064103;28;20082;-51
2021/09/11 03:42:11;;;;;;;2.92;1.73;;;23.50;34.80;;;;;;4068108;28;20128;-53
2021/09/11 03:44:13;;;;;;;4.80;1.88;;;23.50;34.80;;;;;;4061966;28;20134;-51
2021/09/11 03:46:16;;;;;;;2.75;1.90;;;23.60;35.00;;;;;;4066845;28;20056;-53
2021/09/11 03:48:18;;;;;;;4.10;1.80;;;23.70;35.60;;;;;;4070539;28;20101;-51
2021/09/11 03:50:20;;;;;;;3.35;1.80;;;23.70;35.60;;;;;;4074141;28;20352;-49
2021/09/11 03:52:22;;;;;;;5.65;2.00;;;23.80;34.40;;;;;;4070662;28;20049;-53
2021/09/11 03:54:24;;;;;;;2.45;1.80;;;23.90;34.60;;;;;;4072892;28;20733;-52
2021/09/11 03:56:27;;;;;;;3.03;1.70;;;24.00;34.70;;;;;;4073170;28;20058;-56
2021/09/11 03:58:29;;;;;;;3.27;1.90;;;24.10;34.50;;;;;;4075191;28;20301;-49
2021/09/11 04:00:31;;;;;;;2.83;1.42;;;24.20;33.70;;;;;;4076398;28;20055;-51
2021/09/11 04:02:34;;;;;;;3.28;1.98;;;24.20;34.10;;;;;;4075680;28;20063;-53
2021/09/11 04:04:36;;;;;;;3.08;1.98;;;24.30;34.10;;;;;;4078295;28;20060;-50
2021/09/11 04:06:38;;;;;;;4.97;2.22;;;24.40;34.40;;;;;;4081379;28;20146;-46
2021/09/11 04:08:40;;;;;;;2.83;1.80;;;24.50;31.20;;;;;;4076462;28;20132;-51
2021/09/11 04:10:42;;;;;;;2.20;1.80;;;24.70;30.70;;;;;;4076656;28;20162;-52
2021/09/11 04:12:44;;;;;;;2.22;1.60;;;24.80;29.10;;;;;;4069873;28;20059;-52
2021/09/11 04:14:46;;;;;;;2.63;1.77;;;25.00;30.20;;;;;;4076018;28;20055;-51
2021/09/11 04:16:49;;;;;;;2.00;1.50;;;25.10;30.50;;;;;;4077299;28;20528;-48
2021/09/11 04:18:51;;;;;;;2.67;1.60;;;25.10;30.40;;;;;;4078817;28;20047;-49
2021/09/11 04:20:53;;;;;;;2.53;1.70;;;25.10;30.40;;;;;;4112138;28;20065;-52
2021/09/11 04:22:55;;;;;;;2.00;1.60;;;25.20;30.00;;;;;;4111485;28;20068;-48
2021/09/11 04:24:58;;;;;;;2.03;1.55;;;25.30;30.10;;;;;;4076369;28;20055;-52
2021/09/11 04:27:00;;;;;;;3.20;1.67;;;25.30;29.70;;;;;;4076070;28;20051;-48
2021/09/11 04:29:03;;;;;;;1.83;1.60;;;25.40;29.80;;;;;;4068675;28;20059;-54
2021/09/11 04:31:05;;;;;;;3.20;1.80;;;25.50;30.00;;;;;;4074024;28;20063;-50
2021/09/11 04:33:08;;;;;;;3.30;2.17;;;25.50;29.90;;;;;;4069343;28;20055;-51
2021/09/11 04:35:10;;;;;;;5.03;2.10;;;25.60;29.30;;;;;;4069592;28;20055;-50
2021/09/11 04:37:12;;;;;;;3.00;1.70;;;25.70;29.00;;;;;;4066665;28;20153;-53
2021/09/11 04:39:15;;;;;;;2.80;1.70;;;25.80;28.90;;;;;;4063224;28;20055;-52
2021/09/11 04:41:17;;;;;;;2.08;1.60;;;25.90;28.90;;;;;;4067444;28;20063;-55
2021/09/11 04:43:19;;;;;;;1.90;1.57;;;25.90;28.90;;;;;;4066204;28;20577;-54
2021/09/11 04:45:22;;;;;;;3.22;1.52;;;26.00;29.10;;;;;;4063762;28;20051;-51
2021/09/11 04:47:24;;;;;;;3.65;1.73;;;26.10;28.50;;;;;;4064539;28;20630;-51
2021/09/11 04:49:27;;;;;;;3.17;1.70;;;26.20;27.20;;;;;;4063524;28;20181;-51
2021/09/11 04:51:29;;;;;;;3.63;1.33;;;26.20;26.60;;;;;;4064586;28;20051;-52
2021/09/11 04:53:31;;;;;;;2.65;1.50;;;26.30;28.00;;;;;;4066280;28;20816;-51
2021/09/11 04:55:33;;;;;;;2.10;1.52;;;26.40;27.50;;;;;;4062053;28;20182;-47
2021/09/11 04:57:38;;;;;;;2.80;1.90;;;26.50;25.90;;;;;;4062764;28;20058;-51
2021/09/11 04:59:40;;;;;;;4.00;2.03;;;26.60;24.80;;;;;;4061895;28;20067;-48
2021/09/11 05:02:13;;;;;;;2.97;1.80;;;26.80;23.10;;;;;;4203157;27;21182;-46
2021/09/11 05:04:15;;;;;;;4.32;1.92;;;27.00;23.40;;;;;;4202361;27;20116;-48
2021/09/11 05:06:17;;;;;;;2.63;1.67;;;27.10;23.80;;;;;;4191446;28;20058;-52
2021/09/11 05:08:19;;;;;;;4.40;1.77;;;27.20;23.00;;;;;;4202738;27;20044;-51
2021/09/11 05:10:22;;;;;;;2.00;1.53;;;27.30;23.10;;;;;;4187787;28;20089;-49
2021/09/11 05:12:24;;;;;;;2.20;1.73;;;27.30;23.30;;;;;;4189616;28;20312;-51
2021/09/11 05:14:26;;;;;;;2.53;1.87;;;27.30;22.90;;;;;;4189436;28;20105;-48
2021/09/11 05:16:28;;;;;;;2.93;1.80;;;27.40;23.20;;;;;;4209359;27;20085;-51
2021/09/11 05:18:32;;;;;;;4.07;1.70;;;27.50;22.50;;;;;;4209332;27;20311;-46
2021/09/11 05:20:34;;;;;;;2.85;1.40;;;27.50;22.80;;;;;;4210621;27;20058;-51
2021/09/11 05:22:37;;;;;;;2.40;1.63;;;27.60;23.80;;;;;;4208776;27;20162;-49
2021/09/11 05:24:39;;;;;;;2.15;1.50;;;27.50;23.90;;;;;;4209491;27;20102;-49
2021/09/11 05:26:41;;;;;;;3.05;1.60;;;27.60;24.20;;;;;;4208013;27;20047;-54
2021/09/11 05:28:43;;;;;;;3.23;1.70;;;27.60;24.60;;;;;;4190016;28;20105;-46
2021/09/11 05:30:46;;;;;;;2.67;1.75;;;27.60;24.40;;;;;;4209104;27;20153;-49
2021/09/11 05:32:48;;;;;;;3.25;1.88;;;27.60;25.00;;;;;;4211422;27;20055;-52
2021/09/11 05:34:50;;;;;;;2.80;1.70;;;27.60;25.20;;;;;;4191946;28;20048;-51
2021/09/11 05:36:52;;;;;;;2.90;1.70;;;27.60;25.40;;;;;;4191653;28;20059;-50
2021/09/11 05:38:54;;;;;;;2.87;2.10;;;27.50;25.40;;;;;;4208534;27;20048;-53
2021/09/11 05:40:57;;;;;;;2.00;1.70;;;27.50;25.60;;;;;;4190033;28;20147;-53
2021/09/11 05:42:59;;;;;;;2.03;1.40;;;27.50;25.80;;;;;;4210437;27;20043;-52
2021/09/11 05:45:02;;;;;;;3.00;1.40;;;27.50;25.60;;;;;;4210352;27;20079;-51
2021/09/11 05:47:04;;;;;;;1.80;1.42;;;27.50;25.70;;;;;;4210911;27;20302;-50
2021/09/11 05:49:07;;;;;;;2.28;1.73;;;27.50;25.70;;;;;;4207842;27;20051;-48
2021/09/11 05:51:09;;;;;;;1.73;1.43;;;27.50;26.00;;;;;;4212341;27;20062;-53
2021/09/11 05:53:11;;;;;;;3.83;1.80;;;27.50;26.20;;;;;;4209296;27;20311;-52
2021/09/11 05:55:15;;;;;;;1.70;1.57;;;27.50;26.30;;;;;;4209766;27;20081;-53
2021/09/11 05:57:17;;;;;;;2.85;1.42;;;27.50;26.40;;;;;;4208537;27;20047;-53
2021/09/11 05:59:19;;;;;;;3.25;1.60;;;27.60;26.50;;;;;;4190857;28;20048;-50
2021/09/11 06:01:21;;;;;;;2.35;1.65;;;27.60;26.40;;;;;;4210537;27;20083;-51
2021/09/11 06:03:24;;;;;;;1.83;1.38;;;27.60;26.50;;;;;;4208472;27;20051;-48
2021/09/11 06:05:26;;;;;;;2.38;1.65;;;27.60;26.30;;;;;;4209450;27;20058;-48
2021/09/11 06:07:28;;;;;;;2.07;1.60;;;27.60;26.50;;;;;;4210898;27;20043;-51
2021/09/11 06:09:30;;;;;;;2.73;1.40;;;27.70;26.60;;;;;;4189088;28;20067;-53
2021/09/11 06:11:33;;;;;;;3.67;1.80;;;27.70;26.50;;;;;;4210253;27;20058;-47
2021/09/11 06:13:36;;;;;;;3.07;1.60;;;27.70;26.50;;;;;;4197261;27;20903;-47
2021/09/11 06:15:37;;;;;;;;;;;27.70;26.30;;;;;;4199478;27;20090;-50
2021/09/11 06:17:39;;;;;;;3.45;1.52;;;27.80;26.60;;;;;;4196450;28;19928;-50
2021/09/11 06:19:41;;;;;;;2.83;1.50;;;27.80;26.10;;;;;;4180807;28;20048;-49
2021/09/11 06:21:43;;;;;;;1.47;1.10;;;27.80;26.10;;;;;;4196728;28;20178;-51
2021/09/11 06:23:46;;;;;;;2.00;1.58;;;27.80;26.10;;;;;;4199680;27;20035;-49
2021/09/11 06:25:48;;;;;;;2.60;1.57;;;27.80;26.10;;;;;;4198743;28;20051;-47
2021/09/11 06:27:59;;;;;;;2.63;1.50;;;27.90;26.40;;;;;;4198487;28;20415;-50
2021/09/11 06:30:01;;;;;;;2.00;1.40;;;27.90;26.10;;;;;;4178815;28;20109;-49
2021/09/11 06:32:03;;;;;;;2.93;1.60;;;27.90;26.10;;;;;;4196037;28;20051;-51
2021/09/11 06:34:06;;;;;;;2.33;1.67;;;27.90;26.20;;;;;;4200129;28;20043;-53
2021/09/11 06:36:11;;;;;;;1.55;1.33;;;27.90;25.90;;;;;;4180474;28;20055;-50
2021/09/11 06:38:13;;;;;;;2.45;1.77;;;28.00;26.20;;;;;;4197349;28;20105;-52
2021/09/11 06:40:15;;;;;;;1.77;1.50;;;28.00;26.00;;;;;;4196043;28;20063;-52
2021/09/11 06:42:19;;;;;;;2.03;1.63;;;28.00;26.00;;;;;;4198236;28;20050;-47
2021/09/11 06:44:21;;;;;;;2.72;1.77;;;28.00;25.80;;;;;;4199407;28;20058;-51
2021/09/11 06:46:24;;;;;;;2.13;1.70;;;28.00;25.80;;;;;;4198967;28;20066;-53
2021/09/11 06:48:26;;;;;;;2.30;1.75;;;28.00;25.90;;;;;;4198953;28;20051;-52
2021/09/11 06:50:28;;;;;;;1.95;1.65;;;28.00;25.80;;;;;;4198216;27;20323;-49
2021/09/11 06:52:30;;;;;;;2.60;2.00;;;28.00;25.80;;;;;;4197602;28;20489;-50
2021/09/11 06:54:32;;;;;;;2.43;1.70;;;28.00;25.90;;;;;;4198230;27;20055;-51
2021/09/11 06:56:35;;;;;;;2.97;1.88;;;28.00;26.00;;;;;;4197440;28;20054;-51
2021/09/11 06:58:37;;;;;;;1.63;1.42;;;28.00;25.90;;;;;;4198333;28;20051;-48
2021/09/11 07:00:39;;;;;;;2.83;1.90;;;28.00;25.80;;;;;;4198231;28;20889;-51
2021/09/11 07:02:41;;;;;;;3.78;1.63;;;28.00;25.90;;;;;;4198305;28;20047;-53
2021/09/11 07:04:43;;;;;;;3.17;1.83;;;28.00;26.20;;;;;;4179862;28;20051;-51
2021/09/11 07:06:45;;;;;;;2.97;1.60;;;28.00;26.10;;;;;;4203496;28;20126;-51
2021/09/11 07:08:47;;;;;;;3.10;2.00;;;28.00;26.10;;;;;;4186493;28;20047;-54
2021/09/11 07:10:49;;;;;;;2.45;1.48;;;28.00;26.10;;;;;;4207473;28;20044;-52
2021/09/11 07:12:52;;;;;;;4.30;1.80;;;27.90;26.30;;;;;;4204781;28;20089;-51
2021/09/11 07:14:56;;;;;;;3.73;1.77;;;28.00;26.50;;;;;;4205678;27;20075;-54
2021/09/11 07:16:58;;;;;;;3.47;1.95;;;27.90;26.50;;;;;;4202254;28;21046;-51
2021/09/11 07:19:00;;;;;;;2.53;2.00;;;27.90;26.50;;;;;;4206870;27;20052;-51
2021/09/11 07:21:04;;;;;;;2.97;1.80;;;27.90;26.60;;;;;;4206463;28;20123;-52
2021/09/11 07:23:06;;;;;;;3.55;1.95;;;27.80;26.60;;;;;;4204051;28;20060;-50
2021/09/11 07:25:08;;;;;;;4.30;2.00;;;27.80;27.00;;;;;;4202501;27;20059;-55
2021/09/11 07:27:10;;;;;;;5.93;1.83;;;27.80;27.20;;;;;;4205741;28;20132;-52
2021/09/11 07:29:13;;;;;;;3.20;2.35;;;27.80;27.50;;;;;;4200982;27;20068;-52
2021/09/11 07:31:15;;;;;;;2.83;2.10;;;27.70;27.30;;;;;;4206384;28;20044;-47
2021/09/11 07:33:17;;;;;;;4.45;2.25;;;27.70;27.30;;;;;;4201490;28;20058;-51
2021/09/11 07:35:20;;;;;;;4.63;1.73;;;27.70;27.40;;;;;;4206796;27;20130;-51
2021/09/11 07:37:22;;;;;;;4.20;1.90;;;27.60;27.70;;;;;;4190099;28;20654;-49
2021/09/11 07:39:24;;;;;;;3.47;2.38;;;27.60;27.60;;;;;;4205813;27;20097;-50
2021/09/11 07:41:26;;;;;;;3.03;2.28;;;27.60;27.70;;;;;;4205545;27;20051;-49
2021/09/11 07:43:29;;;;;;;4.20;2.60;;;27.60;27.80;;;;;;4181670;28;20135;-49
2021/09/11 07:45:31;;;;;;;3.00;2.25;;;27.60;27.80;;;;;;4198228;27;20055;-51
2021/09/11 07:47:33;;;;;;;4.97;2.30;;;27.50;28.00;;;;;;4197318;28;20052;-51
2021/09/11 07:49:35;;;;;;;4.10;2.50;;;27.50;28.00;;;;;;4193864;28;20575;-52
2021/09/11 07:51:37;;;;;;;3.03;2.35;;;27.50;27.90;;;;;;4198164;28;20143;-50
2021/09/11 07:53:40;;;;;;;3.55;2.35;;;27.50;28.00;;;;;;4194585;28;20164;-52
2021/09/11 07:55:43;;;;;;;4.13;2.42;;;27.50;28.10;;;;;;4177210;28;20040;-49
2021/09/11 07:57:45;;;;;;;5.53;3.05;;;27.40;28.70;;;;;;4195800;28;20586;-52
2021/09/11 07:59:47;;;;;;;4.00;2.78;;;27.50;28.40;;;;;;4196558;27;20047;-54
2021/09/11 08:02:14;;;;;;;5.65;3.30;;;27.40;28.10;;;;;;4172800;27;20438;-56
2021/09/11 08:04:16;;;;;;;3.93;3.13;;;27.40;28.40;;;;;;4157936;28;20908;-52
2021/09/11 08:06:18;;;;;;;4.20;2.80;;;27.40;28.30;;;;;;4156817;28;20041;-49
2021/09/11 08:08:20;;;;;;;4.38;2.67;;;27.30;27.90;;;;;;4154150;28;20053;-47
2021/09/11 08:10:23;;;;;;;4.95;2.88;;;27.30;27.90;;;;;;4152340;28;20053;-52
2021/09/11 08:12:25;;;;;;;4.78;2.70;;;27.30;28.00;;;;;;4139124;28;20053;-51
2021/09/11 08:14:27;;;;;;;4.03;2.80;;;27.30;27.80;;;;;;4139837;28;20136;-46
2021/09/11 08:16:30;;;;;;;3.83;2.77;;;27.20;27.50;;;;;;4137948;28;20049;-54
2021/09/11 08:18:32;;;;;;;3.58;2.40;;;27.20;27.40;;;;;;4142418;28;20302;-50
2021/09/11 08:20:35;;;;;;;2.83;2.50;;;27.20;27.30;;;;;;4141212;28;20068;-51
2021/09/11 08:22:37;;;;;;;6.20;2.53;;;27.10;27.20;;;;;;4140329;28;20714;-48
2021/09/11 08:24:39;;;;;;;4.88;2.75;;;27.10;27.20;;;;;;4143657;28;20160;-52
2021/09/11 08:26:42;;;;;;;3.28;2.70;;;27.10;27.20;;;;;;4143226;28;20045;-48
2021/09/11 08:28:44;;;;;;;3.25;2.55;;;27.00;27.10;;;;;;4145519;28;20044;-52
2021/09/11 08:30:46;;;;;;;3.72;2.75;;;27.00;27.40;;;;;;4144027;28;20087;-53
2021/09/11 08:32:48;;;;;;;4.00;2.80;;;27.00;26.90;;;;;;4147516;28;20310;-49
2021/09/11 08:34:52;;;;;;;9.57;3.08;;;26.90;27.00;;;;;;4148628;28;20049;-51
2021/09/11 08:36:54;;;;;;;3.58;2.90;;;26.90;27.50;;;;;;4143639;28;20072;-54
2021/09/11 08:38:56;;;;;;;5.47;3.22;;;26.90;27.50;;;;;;4147389;28;20172;-52
2021/09/11 08:41:02;;;;;;;3.75;3.03;;;26.80;27.40;;;;;;4146750;28;20057;-49
2021/09/11 08:43:04;;;;;;;4.65;3.60;;;26.80;27.60;;;;;;4144737;28;20041;-52
2021/09/11 08:45:11;;;;;;;3.58;2.92;;;26.80;27.60;;;;;;4136770;28;20057;-55
2021/09/11 08:47:14;;;;;;;4.85;3.00;;;26.70;28.60;;;;;;4150059;28;20357;-47
2021/09/11 08:49:17;;;;;;;3.78;2.85;;;26.70;28.70;;;;;;4145771;28;20182;-54
2021/09/11 08:51:19;;;;;;;3.70;2.63;;;26.70;28.80;;;;;;4148560;28;20045;-54
2021/09/11 08:53:22;;;;;;;4.90;2.77;;;26.70;28.60;;;;;;4147949;28;20096;-50
2021/09/11 08:55:24;;;;;;;;;;;26.60;29.20;;;;;;4148722;28;20073;-54
2021/09/11 08:57:30;;;;;;;3.80;2.72;;;26.60;29.20;;;;;;4140025;28;20026;-53
2021/09/11 08:59:36;;;;;;;5.15;2.80;;;26.60;29.00;;;;;;4143764;28;20072;-45
2021/09/11 09:01:39;;;;;;;3.25;2.47;;;26.60;29.20;;;;;;4139512;28;20645;-50
2021/09/11 09:03:43;;;;;;;4.97;2.50;;;26.60;29.20;;;;;;4138658;28;20045;-47
2021/09/11 09:05:46;;;;;;;3.78;3.10;;;26.50;29.00;;;;;;4141816;28;20045;-48
2021/09/11 09:07:48;;;;;;;6.88;2.90;;;26.50;29.00;;;;;;4138893;28;20135;-49
2021/09/11 09:10:07;;;;;;;4.47;2.90;;;26.50;28.90;;;;;;4136865;28;20123;-48
2021/09/11 09:12:16;;;;;;;5.60;2.95;;;26.50;29.00;;;;;;4134473;28;21363;-50
2021/09/11 09:14:21;;;;;;;5.38;3.20;;;26.40;28.90;;;;;;4122241;28;20057;-46
2021/09/11 09:16:28;;;;;;;5.70;3.22;;;26.40;28.90;;;;;;4127101;28;20073;-53
2021/09/11 09:18:33;;;;;;;4.93;2.80;;;26.40;29.00;;;;;;4123362;28;20188;-53
2021/09/11 09:20:36;;;;;;;5.13;2.90;;;26.40;29.20;;;;;;4122753;28;20053;-51
2021/09/11 09:22:38;;;;;;;9.70;3.30;;;26.30;29.40;;;;;;4125076;28;20061;-54
2021/09/11 09:24:40;;;;;;;4.30;2.90;;;26.30;29.20;;;;;;4121083;28;20065;-47
2021/09/11 09:26:58;;;;;;;5.05;3.38;;;26.30;29.40;;;;;;4123898;28;20060;-49
2021/09/11 09:29:11;;;;;;;5.68;3.20;;;26.30;29.30;;;;;;4123312;28;20045;-50
2021/09/11 09:31:22;;;;;;;9.27;3.20;;;26.30;29.80;;;;;;4124300;28;20871;-51
2021/09/11 09:33:30;;;;;;;4.82;3.08;;;26.20;29.90;;;;;;4123705;28;20069;-50
2021/09/11 09:35:33;;;;;;;3.78;2.75;;;26.20;30.40;;;;;;4122445;28;20049;-50
2021/09/11 09:37:52;;;;;;;5.85;3.03;;;26.20;31.10;;;;;;4122206;28;21377;-51
2021/09/11 09:39:54;;;;;;;3.25;2.30;;;26.20;31.70;;;;;;4122289;28;20140;-49
2021/09/11 09:42:05;;;;;;;3.80;2.37;;;26.20;32.50;;;;;;4125445;28;20060;-53
2021/09/11 09:44:07;;;;;;;3.13;2.38;;;26.20;33.00;;;;;;4125828;28;21558;-51
2021/09/11 09:46:19;;;;;;;2.97;2.20;;;26.20;33.40;;;;;;4124631;28;20050;-50
2021/09/11 09:48:29;;;;;;;3.97;2.45;;;26.20;33.80;;;;;;4130550;28;20053;-53
2021/09/11 09:50:33;;;;;;;5.88;2.25;;;26.20;34.00;;;;;;4120591;28;20768;-53
2021/09/11 09:52:38;;;;;;;3.38;2.22;;;26.20;34.10;;;;;;4127507;28;20060;-50
2021/09/11 09:54:41;;;;;;;4.57;2.83;;;26.20;34.40;;;;;;4121935;28;20065;-51
2021/09/11 09:56:43;;;;;;;3.60;2.63;;;26.20;34.00;;;;;;4126455;28;20597;-56
2021/09/11 09:58:47;;;;;;;5.65;3.15;;;26.20;34.10;;;;;;4126389;28;20095;-49
2021/09/11 10:00:50;;;;;;;3.95;2.67;;;26.20;34.20;;;;;;4120540;28;20049;-56
2021/09/11 10:02:52;;;;;;;6.38;3.17;;;26.20;34.30;;;;;;4125004;28;21500;-55
2021/09/11 10:04:56;;;;;;;4.57;2.80;;;26.20;34.40;;;;;;4123171;28;20045;-53
2021/09/11 10:07:03;;;;;;;3.53;2.90;;;26.10;34.40;;;;;;4126294;28;20110;-54
2021/09/11 10:09:07;;;;;;;3.67;2.85;;;26.10;34.60;;;;;;4124485;28;21420;-53
2021/09/11 10:11:11;;;;;;;4.20;3.00;;;26.10;34.80;;;;;;4124004;28;20046;-50
2021/09/11 10:13:19;;;;;;;3.45;2.42;;;26.10;35.00;;;;;;4123365;28;20084;-52
2021/09/11 10:15:33;;;;;;;2.97;2.30;;;26.10;35.20;;;;;;4124675;28;20053;-49
2021/09/11 10:17:36;;;;;;;2.90;2.40;;;26.10;35.40;;;;;;4124473;28;20050;-47
2021/09/11 10:19:43;;;;;;;3.83;2.75;;;26.10;35.40;;;;;;4124948;28;20049;-54
2021/09/11 10:21:47;;;;;;;5.55;3.08;;;26.10;35.50;;;;;;4125107;28;20107;-52
2021/09/11 10:23:58;;;;;;;7.20;3.00;;;26.10;35.60;;;;;;4125070;28;20073;-53
2021/09/11 10:26:00;;;;;;;3.90;3.40;;;26.10;35.50;;;;;;4125883;28;20113;-49
2021/09/11 10:28:17;;;;;;;3.88;3.03;;;26.10;35.60;;;;;;4124223;28;20050;-52
2021/09/11 10:30:19;;;;;;;5.18;3.20;;;26.00;35.50;;;;;;4125621;28;20054;-52
2021/09/11 10:32:48;;;;;;;4.03;3.17;;;26.00;35.50;;;;;;4125214;28;20045;-54
2021/09/11 10:35:05;;;;;;;5.13;3.20;;;26.00;35.50;;;;;;4126319;28;20905;-52
2021/09/11 10:37:09;;;;;;;4.75;3.38;;;26.00;35.40;;;;;;4125765;28;20640;-55
2021/09/11 10:39:12;;;;;;;7.32;3.47;;;26.00;36.20;;;;;;4125405;28;20064;-49
2021/09/11 10:41:15;;;;;;;5.40;3.40;;;26.00;36.30;;;;;;4126257;28;20111;-46
2021/09/11 10:43:32;;;;;;;4.85;3.28;;;26.00;36.50;;;;;;4126265;28;20045;-50